sensor_id;sensor_type;location;lat;lon;timestamp;pressure;altitude;pressure_sealevel;temperature;humidity
83559;BME280;73527;47.882;7.718;2024-01-16T00:00:07;98117.88;;;-0.21;64.65
83559;BME280;73527;47.882;7.718;2024-01-16T00:02:34;98124.38;;;-0.46;65.70
83559;BME280;73527;47.882;7.718;2024-01-16T00:04:59;98127.88;;;-0.36;64.49
83559;BME280;73527;47.882;7.718;2024-01-16T00:07:24;98111.19;;;-0.25;64.30
83559;BME280;73527;47.882;7.718;2024-01-16T00:09:50;98113.97;;;-0.27;64.11
83559;BME280;73527;47.882;7.718;2024-01-16T00:12:18;98119.69;;;-0.42;63.90
83559;BME280;73527;47.882;7.718;2024-01-16T00:14:43;98103.94;;;-0.12;63.16
83559;BME280;73527;47.882;7.718;2024-01-16T00:17:08;98107.16;;;-0.29;63.47
83559;BME280;73527;47.882;7.718;2024-01-16T00:19:34;98112.78;;;-0.75;65.15
83559;BME280;73527;47.882;7.718;2024-01-16T00:22:00;98104.94;;;-0.55;65.71
83559;BME280;73527;47.882;7.718;2024-01-16T00:24:27;98113.81;;;-0.87;66.04
83559;BME280;73527;47.882;7.718;2024-01-16T00:26:52;98112.44;;;-0.71;64.90
83559;BME280;73527;47.882;7.718;2024-01-16T00:29:18;98120.50;;;-1.15;66.24
83559;BME280;73527;47.882;7.718;2024-01-16T00:31:43;98119.06;;;-0.87;65.27
83559;BME280;73527;47.882;7.718;2024-01-16T00:34:09;98118.91;;;-0.54;63.66
83559;BME280;73527;47.882;7.718;2024-01-16T00:36:34;98113.22;;;-0.91;65.48
83559;BME280;73527;47.882;7.718;2024-01-16T00:38:59;98100.31;;;-0.41;64.00
83559;BME280;73527;47.882;7.718;2024-01-16T00:41:25;98114.94;;;-0.69;63.70
83559;BME280;73527;47.882;7.718;2024-01-16T00:43:50;98117.06;;;-0.63;63.94
83559;BME280;73527;47.882;7.718;2024-01-16T00:46:15;98116.44;;;-1.08;65.06
83559;BME280;73527;47.882;7.718;2024-01-16T00:48:41;98126.78;;;-0.95;64.31
83559;BME280;73527;47.882;7.718;2024-01-16T00:51:06;98117.69;;;-0.71;63.88
83559;BME280;73527;47.882;7.718;2024-01-16T00:53:31;98115.19;;;-1.04;64.56
83559;BME280;73527;47.882;7.718;2024-01-16T00:55:57;98110.44;;;-0.78;64.00
83559;BME280;73527;47.882;7.718;2024-01-16T00:58:23;98113.38;;;-0.92;64.13
83559;BME280;73527;47.882;7.718;2024-01-16T01:00:48;98112.56;;;-0.72;63.92
83559;BME280;73527;47.882;7.718;2024-01-16T01:03:14;98117.50;;;-0.58;63.11
83559;BME280;73527;47.882;7.718;2024-01-16T01:05:39;98112.44;;;-0.71;63.68
83559;BME280;73527;47.882;7.718;2024-01-16T01:08:05;98114.03;;;-0.59;63.30
83559;BME280;73527;47.882;7.718;2024-01-16T01:10:30;98112.97;;;-1.09;64.59
83559;BME280;73527;47.882;7.718;2024-01-16T01:12:55;98119.44;;;-1.24;64.80
83559;BME280;73527;47.882;7.718;2024-01-16T01:15:21;98115.63;;;-1.20;65.11
83559;BME280;73527;47.882;7.718;2024-01-16T01:17:50;98115.59;;;-0.88;64.49
83559;BME280;73527;47.882;7.718;2024-01-16T01:20:17;98119.53;;;-0.82;63.57
83559;BME280;73527;47.882;7.718;2024-01-16T01:22:43;98117.25;;;-0.55;62.32
83559;BME280;73527;47.882;7.718;2024-01-16T01:25:10;98105.44;;;-0.40;61.97
83559;BME280;73527;47.882;7.718;2024-01-16T01:27:36;98117.50;;;-0.79;62.32
83559;BME280;73527;47.882;7.718;2024-01-16T01:30:01;98106.38;;;-1.14;64.18
83559;BME280;73527;47.882;7.718;2024-01-16T01:32:26;98110.19;;;-0.55;62.10
83559;BME280;73527;47.882;7.718;2024-01-16T01:34:52;98114.34;;;-1.05;63.01
83559;BME280;73527;47.882;7.718;2024-01-16T01:37:17;98102.13;;;-0.63;62.42
83559;BME280;73527;47.882;7.718;2024-01-16T01:39:43;98117.00;;;-0.73;62.20
83559;BME280;73527;47.882;7.718;2024-01-16T01:42:08;98105.41;;;-0.49;61.72
83559;BME280;73527;47.882;7.718;2024-01-16T01:44:33;98095.56;;;-0.27;60.44
83559;BME280;73527;47.882;7.718;2024-01-16T01:46:59;98108.31;;;-0.22;59.91
83559;BME280;73527;47.882;7.718;2024-01-16T01:49:25;98106.75;;;-0.04;58.76
83559;BME280;73527;47.882;7.718;2024-01-16T01:51:50;98106.94;;;-0.26;60.15
83559;BME280;73527;47.882;7.718;2024-01-16T01:54:17;98109.28;;;-0.23;59.90
83559;BME280;73527;47.882;7.718;2024-01-16T01:56:44;98112.34;;;-0.39;60.74
83559;BME280;73527;47.882;7.718;2024-01-16T01:59:11;98110.94;;;-0.22;60.35
83559;BME280;73527;47.882;7.718;2024-01-16T02:01:36;98104.19;;;-0.15;59.95
83559;BME280;73527;47.882;7.718;2024-01-16T02:04:04;98117.03;;;-0.42;60.57
83559;BME280;73527;47.882;7.718;2024-01-16T02:06:29;98106.25;;;-0.19;60.95
83559;BME280;73527;47.882;7.718;2024-01-16T02:08:55;98110.97;;;-0.43;59.94
83559;BME280;73527;47.882;7.718;2024-01-16T02:11:20;98108.25;;;-0.32;60.41
83559;BME280;73527;47.882;7.718;2024-01-16T02:13:46;98121.13;;;-0.59;61.46
83559;BME280;73527;47.882;7.718;2024-01-16T02:16:21;98114.09;;;-0.70;61.50
83559;BME280;73527;47.882;7.718;2024-01-16T02:18:47;98105.78;;;-1.07;62.32
83559;BME280;73527;47.882;7.718;2024-01-16T02:21:17;98115.09;;;-0.82;62.01
83559;BME280;73527;47.882;7.718;2024-01-16T02:23:43;98121.63;;;-1.29;63.35
83559;BME280;73527;47.882;7.718;2024-01-16T02:26:08;98118.91;;;-1.49;64.80
83559;BME280;73527;47.882;7.718;2024-01-16T02:28:33;98110.84;;;-0.94;62.62
83559;BME280;73527;47.882;7.718;2024-01-16T02:30:59;98100.41;;;-1.05;62.11
83559;BME280;73527;47.882;7.718;2024-01-16T02:33:24;98101.34;;;-1.06;62.71
83559;BME280;73527;47.882;7.718;2024-01-16T02:35:49;98098.63;;;-0.84;61.88
83559;BME280;73527;47.882;7.718;2024-01-16T02:38:15;98108.88;;;-0.81;61.79
83559;BME280;73527;47.882;7.718;2024-01-16T02:40:40;98117.91;;;-1.26;62.66
83559;BME280;73527;47.882;7.718;2024-01-16T02:43:06;98105.56;;;-1.69;65.13
83559;BME280;73527;47.882;7.718;2024-01-16T02:45:31;98096.63;;;-1.66;64.41
83559;BME280;73527;47.882;7.718;2024-01-16T02:47:57;98115.25;;;-1.80;65.31
83559;BME280;73527;47.882;7.718;2024-01-16T02:50:23;98099.16;;;-1.33;64.40
83559;BME280;73527;47.882;7.718;2024-01-16T02:52:48;98105.91;;;-1.08;63.89
83559;BME280;73527;47.882;7.718;2024-01-16T02:55:13;98101.25;;;-1.47;64.14
83559;BME280;73527;47.882;7.718;2024-01-16T02:57:39;98100.94;;;-1.22;63.34
83559;BME280;73527;47.882;7.718;2024-01-16T03:00:05;98117.84;;;-1.69;64.97
83559;BME280;73527;47.882;7.718;2024-01-16T03:02:33;98117.19;;;-1.28;63.43
83559;BME280;73527;47.882;7.718;2024-01-16T03:04:58;98081.09;;;-1.15;62.84
83559;BME280;73527;47.882;7.718;2024-01-16T03:07:24;98107.34;;;-0.83;61.51
83559;BME280;73527;47.882;7.718;2024-01-16T03:09:49;98105.06;;;-0.77;61.17
83559;BME280;73527;47.882;7.718;2024-01-16T03:12:15;98103.19;;;-0.86;61.31
83559;BME280;73527;47.882;7.718;2024-01-16T03:14:40;98100.19;;;-0.61;60.96
83559;BME280;73527;47.882;7.718;2024-01-16T03:17:05;98104.41;;;-0.90;61.57
83559;BME280;73527;47.882;7.718;2024-01-16T03:19:32;98109.16;;;-1.16;62.42
83559;BME280;73527;47.882;7.718;2024-01-16T03:21:57;98104.75;;;-1.15;63.01
83559;BME280;73527;47.882;7.718;2024-01-16T03:24:22;98103.69;;;-0.92;61.85
83559;BME280;73527;47.882;7.718;2024-01-16T03:26:48;98091.13;;;-0.88;61.12
83559;BME280;73527;47.882;7.718;2024-01-16T03:29:13;98094.38;;;-0.96;62.21
83559;BME280;73527;47.882;7.718;2024-01-16T03:31:39;98101.13;;;-1.14;62.46
83559;BME280;73527;47.882;7.718;2024-01-16T03:34:04;98103.81;;;-1.25;62.79
83559;BME280;73527;47.882;7.718;2024-01-16T03:36:29;98100.28;;;-1.46;63.62
83559;BME280;73527;47.882;7.718;2024-01-16T03:38:55;98101.25;;;-1.47;64.00
83559;BME280;73527;47.882;7.718;2024-01-16T03:41:20;98093.13;;;-1.55;64.24
83559;BME280;73527;47.882;7.718;2024-01-16T03:43:46;98116.72;;;-1.33;63.11
83559;BME280;73527;47.882;7.718;2024-01-16T03:46:11;98107.16;;;-1.23;62.70
83559;BME280;73527;47.882;7.718;2024-01-16T03:48:37;98088.56;;;-0.99;62.12
83559;BME280;73527;47.882;7.718;2024-01-16T03:51:02;98073.63;;;-0.99;61.47
83559;BME280;73527;47.882;7.718;2024-01-16T03:53:27;98069.91;;;-0.76;61.33
83559;BME280;73527;47.882;7.718;2024-01-16T03:55:53;98074.34;;;-0.76;60.95
83559;BME280;73527;47.882;7.718;2024-01-16T03:58:18;98082.09;;;-0.75;61.18
83559;BME280;73527;47.882;7.718;2024-01-16T04:00:44;98090.56;;;-0.92;61.45
83559;BME280;73527;47.882;7.718;2024-01-16T04:03:09;98083.06;;;-1.28;62.44
83559;BME280;73527;47.882;7.718;2024-01-16T04:05:35;98095.88;;;-1.14;62.59
83559;BME280;73527;47.882;7.718;2024-01-16T04:08:00;98098.06;;;-1.19;61.65
83559;BME280;73527;47.882;7.718;2024-01-16T04:10:26;98094.00;;;-1.23;61.71
83559;BME280;73527;47.882;7.718;2024-01-16T04:12:51;98081.69;;;-1.12;61.35
83559;BME280;73527;47.882;7.718;2024-01-16T04:15:17;98089.06;;;-0.85;60.96
83559;BME280;73527;47.882;7.718;2024-01-16T04:17:42;98079.31;;;-1.15;61.60
83559;BME280;73527;47.882;7.718;2024-01-16T04:20:08;98087.31;;;-1.27;62.46
83559;BME280;73527;47.882;7.718;2024-01-16T04:22:34;98081.66;;;-1.43;63.15
83559;BME280;73527;47.882;7.718;2024-01-16T04:25:00;98079.69;;;-1.30;62.71
83559;BME280;73527;47.882;7.718;2024-01-16T04:27:25;98071.03;;;-1.10;61.35
83559;BME280;73527;47.882;7.718;2024-01-16T04:29:51;98078.97;;;-1.00;61.45
83559;BME280;73527;47.882;7.718;2024-01-16T04:32:17;98081.50;;;-0.99;61.06
83559;BME280;73527;47.882;7.718;2024-01-16T04:34:42;98085.50;;;-1.16;61.22
83559;BME280;73527;47.882;7.718;2024-01-16T04:37:07;98053.00;;;-1.46;61.92
83559;BME280;73527;47.882;7.718;2024-01-16T04:39:33;98062.97;;;-1.18;61.69
83559;BME280;73527;47.882;7.718;2024-01-16T04:41:58;98053.69;;;-1.01;60.77
83559;BME280;73527;47.882;7.718;2024-01-16T04:44:24;98055.66;;;-0.94;60.21
83559;BME280;73527;47.882;7.718;2024-01-16T04:46:49;98057.84;;;-0.99;61.37
83559;BME280;73527;47.882;7.718;2024-01-16T04:49:14;98046.47;;;-1.20;61.74
83559;BME280;73527;47.882;7.718;2024-01-16T04:51:40;98043.41;;;-1.36;62.06
83559;BME280;73527;47.882;7.718;2024-01-16T04:54:05;98049.28;;;-1.44;62.48
83559;BME280;73527;47.882;7.718;2024-01-16T04:56:30;98035.38;;;-1.55;63.15
83559;BME280;73527;47.882;7.718;2024-01-16T04:58:55;98033.53;;;-1.44;62.99
83559;BME280;73527;47.882;7.718;2024-01-16T05:01:21;98030.81;;;-1.53;62.28
83559;BME280;73527;47.882;7.718;2024-01-16T05:03:46;98022.13;;;-1.22;61.50
83559;BME280;73527;47.882;7.718;2024-01-16T05:06:13;98027.56;;;-1.35;61.67
83559;BME280;73527;47.882;7.718;2024-01-16T05:08:42;98020.19;;;-1.20;61.01
83559;BME280;73527;47.882;7.718;2024-01-16T05:11:08;98020.44;;;-1.23;61.34
83559;BME280;73527;47.882;7.718;2024-01-16T05:13:33;97993.47;;;-1.05;60.23
83559;BME280;73527;47.882;7.718;2024-01-16T05:15:59;98017.69;;;-1.01;59.80
83559;BME280;73527;47.882;7.718;2024-01-16T05:18:24;98014.13;;;-1.00;59.46
83559;BME280;73527;47.882;7.718;2024-01-16T05:20:49;98011.63;;;-0.81;59.54
83559;BME280;73527;47.882;7.718;2024-01-16T05:23:15;98004.75;;;-0.72;59.29
83559;BME280;73527;47.882;7.718;2024-01-16T05:25:40;98006.13;;;-0.98;59.96
83559;BME280;73527;47.882;7.718;2024-01-16T05:28:06;98011.16;;;-1.07;59.70
83559;BME280;73527;47.882;7.718;2024-01-16T05:30:32;97988.31;;;-0.95;58.81
83559;BME280;73527;47.882;7.718;2024-01-16T05:32:58;98005.91;;;-1.07;59.91
83559;BME280;73527;47.882;7.718;2024-01-16T05:35:27;98001.75;;;-1.09;60.32
83559;BME280;73527;47.882;7.718;2024-01-16T05:37:53;97986.94;;;-1.10;59.68
83559;BME280;73527;47.882;7.718;2024-01-16T05:40:18;98002.28;;;-1.15;59.97
83559;BME280;73527;47.882;7.718;2024-01-16T05:42:44;97997.59;;;-1.12;60.72
83559;BME280;73527;47.882;7.718;2024-01-16T05:45:09;97996.88;;;-1.14;60.88
83559;BME280;73527;47.882;7.718;2024-01-16T05:47:34;97995.69;;;-1.41;62.05
83559;BME280;73527;47.882;7.718;2024-01-16T05:50:00;97991.34;;;-1.63;61.99
83559;BME280;73527;47.882;7.718;2024-01-16T05:52:25;98000.72;;;-1.49;62.21
83559;BME280;73527;47.882;7.718;2024-01-16T05:54:50;97999.03;;;-1.71;62.53
83559;BME280;73527;47.882;7.718;2024-01-16T05:57:16;97993.69;;;-1.81;63.02
83559;BME280;73527;47.882;7.718;2024-01-16T05:59:41;98004.53;;;-1.74;63.02
83559;BME280;73527;47.882;7.718;2024-01-16T06:02:06;98011.97;;;-1.47;61.79
83559;BME280;73527;47.882;7.718;2024-01-16T06:04:32;98016.91;;;-1.76;62.59
83559;BME280;73527;47.882;7.718;2024-01-16T06:06:58;98005.03;;;-1.48;61.87
83559;BME280;73527;47.882;7.718;2024-01-16T06:09:23;98010.44;;;-1.29;60.78
83559;BME280;73527;47.882;7.718;2024-01-16T06:11:49;98002.56;;;-1.29;60.20
83559;BME280;73527;47.882;7.718;2024-01-16T06:14:14;97999.19;;;-0.99;58.75
83559;BME280;73527;47.882;7.718;2024-01-16T06:16:46;98003.28;;;-0.86;57.68
83559;BME280;73527;47.882;7.718;2024-01-16T06:19:12;97993.22;;;-0.81;58.15
83559;BME280;73527;47.882;7.718;2024-01-16T06:21:37;98011.31;;;-1.08;59.59
83559;BME280;73527;47.882;7.718;2024-01-16T06:24:05;98010.41;;;-1.50;60.85
83559;BME280;73527;47.882;7.718;2024-01-16T06:26:30;98005.63;;;-1.77;62.12
83559;BME280;73527;47.882;7.718;2024-01-16T06:28:56;97986.41;;;-1.88;62.05
83559;BME280;73527;47.882;7.718;2024-01-16T06:31:22;98001.63;;;-1.28;60.88
83559;BME280;73527;47.882;7.718;2024-01-16T06:33:48;97998.69;;;-1.46;60.50
83559;BME280;73527;47.882;7.718;2024-01-16T06:36:14;97991.97;;;-1.39;60.21
83559;BME280;73527;47.882;7.718;2024-01-16T06:38:39;97985.25;;;-1.64;61.26
83559;BME280;73527;47.882;7.718;2024-01-16T06:41:05;97989.53;;;-1.51;60.16
83559;BME280;73527;47.882;7.718;2024-01-16T06:43:31;97981.09;;;-1.34;59.53
83559;BME280;73527;47.882;7.718;2024-01-16T06:45:56;97979.94;;;-1.21;58.96
83559;BME280;73527;47.882;7.718;2024-01-16T06:48:22;97974.84;;;-1.01;58.80
83559;BME280;73527;47.882;7.718;2024-01-16T06:50:47;97971.50;;;-0.83;57.86
83559;BME280;73527;47.882;7.718;2024-01-16T06:53:12;97976.28;;;-0.88;58.16
83559;BME280;73527;47.882;7.718;2024-01-16T06:55:38;97963.09;;;-0.97;58.09
83559;BME280;73527;47.882;7.718;2024-01-16T06:58:03;97922.13;;;-1.00;58.16
83559;BME280;73527;47.882;7.718;2024-01-16T07:00:29;97963.63;;;-0.52;57.18
83559;BME280;73527;47.882;7.718;2024-01-16T07:02:55;97978.88;;;-0.46;57.46
83559;BME280;73527;47.882;7.718;2024-01-16T07:05:20;97966.56;;;-0.46;56.44
83559;BME280;73527;47.882;7.718;2024-01-16T07:07:49;97976.03;;;-0.55;55.91
83559;BME280;73527;47.882;7.718;2024-01-16T07:10:14;97966.28;;;-0.43;56.10
83559;BME280;73527;47.882;7.718;2024-01-16T07:12:46;97972.34;;;-0.42;55.44
83559;BME280;73527;47.882;7.718;2024-01-16T07:15:12;97969.53;;;-0.60;55.75
83559;BME280;73527;47.882;7.718;2024-01-16T07:17:39;97971.13;;;-0.38;55.14
83559;BME280;73527;47.882;7.718;2024-01-16T07:20:04;97963.31;;;-0.59;54.92
83559;BME280;73527;47.882;7.718;2024-01-16T07:22:30;97965.56;;;-0.75;56.52
83559;BME280;73527;47.882;7.718;2024-01-16T07:24:55;97961.13;;;-0.44;55.42
83559;BME280;73527;47.882;7.718;2024-01-16T07:27:21;97962.59;;;-0.21;54.56
83559;BME280;73527;47.882;7.718;2024-01-16T07:29:46;97961.47;;;-0.28;54.41
83559;BME280;73527;47.882;7.718;2024-01-16T07:32:11;97966.47;;;-0.25;54.51
83559;BME280;73527;47.882;7.718;2024-01-16T07:34:37;97967.94;;;-0.42;55.94
83559;BME280;73527;47.882;7.718;2024-01-16T07:37:02;97960.66;;;-0.19;55.48
83559;BME280;73527;47.882;7.718;2024-01-16T07:39:28;97961.47;;;-0.28;54.68
83559;BME280;73527;47.882;7.718;2024-01-16T07:41:53;97956.75;;;-0.34;54.16
83559;BME280;73527;47.882;7.718;2024-01-16T07:44:18;97977.47;;;-0.50;54.41
83559;BME280;73527;47.882;7.718;2024-01-16T07:46:44;97981.88;;;-0.51;55.19
83559;BME280;73527;47.882;7.718;2024-01-16T07:49:09;97980.44;;;-0.34;55.80
83559;BME280;73527;47.882;7.718;2024-01-16T07:51:34;97993.00;;;-0.08;54.82
83559;BME280;73527;47.882;7.718;2024-01-16T07:54:07;97988.50;;;0.33;54.22
83559;BME280;73527;47.882;7.718;2024-01-16T07:56:34;97981.09;;;0.08;55.39
83559;BME280;73527;47.882;7.718;2024-01-16T07:58:59;97973.81;;;-0.19;56.15
83559;BME280;73527;47.882;7.718;2024-01-16T08:01:25;97981.03;;;0.38;55.71
83559;BME280;73527;47.882;7.718;2024-01-16T08:03:50;97980.91;;;0.59;54.87
83559;BME280;73527;47.882;7.718;2024-01-16T08:06:16;97979.50;;;0.93;54.44
83559;BME280;73527;47.882;7.718;2024-01-16T08:08:41;97975.69;;;1.15;53.35
83559;BME280;73527;47.882;7.718;2024-01-16T08:11:06;97981.63;;;1.36;53.55
83559;BME280;73527;47.882;7.718;2024-01-16T08:13:32;97976.97;;;1.67;52.54
83559;BME280;73527;47.882;7.718;2024-01-16T08:15:58;97969.28;;;2.00;51.29
83559;BME280;73527;47.882;7.718;2024-01-16T08:18:23;97960.78;;;2.24;51.39
83559;BME280;73527;47.882;7.718;2024-01-16T08:20:49;97962.78;;;2.57;50.68
83559;BME280;73527;47.882;7.718;2024-01-16T08:23:14;97967.91;;;2.77;49.32
83559;BME280;73527;47.882;7.718;2024-01-16T08:25:40;97947.41;;;3.14;48.75
83559;BME280;73527;47.882;7.718;2024-01-16T08:28:05;97943.19;;;3.29;48.46
83559;BME280;73527;47.882;7.718;2024-01-16T08:30:30;97943.28;;;3.45;48.26
83559;BME280;73527;47.882;7.718;2024-01-16T08:32:56;97942.00;;;3.57;47.45
83559;BME280;73527;47.882;7.718;2024-01-16T08:35:21;97944.41;;;3.68;46.96
83559;BME280;73527;47.882;7.718;2024-01-16T08:37:48;97937.88;;;3.89;47.40
83559;BME280;73527;47.882;7.718;2024-01-16T08:40:13;97945.50;;;3.92;47.34
83559;BME280;73527;47.882;7.718;2024-01-16T08:42:39;97934.81;;;4.17;46.17
83559;BME280;73527;47.882;7.718;2024-01-16T08:45:04;97940.31;;;4.40;46.33
83559;BME280;73527;47.882;7.718;2024-01-16T08:47:30;97930.88;;;4.46;44.48
83559;BME280;73527;47.882;7.718;2024-01-16T08:49:56;97921.63;;;4.74;44.67
83559;BME280;73527;47.882;7.718;2024-01-16T08:52:21;97931.75;;;4.70;45.46
83559;BME280;73527;47.882;7.718;2024-01-16T08:54:47;97934.75;;;4.84;45.32
83559;BME280;73527;47.882;7.718;2024-01-16T08:57:13;97935.38;;;5.26;43.42
83559;BME280;73527;47.882;7.718;2024-01-16T08:59:40;97921.63;;;4.98;44.22
83559;BME280;73527;47.882;7.718;2024-01-16T09:02:05;97934.41;;;5.03;44.24
83559;BME280;73527;47.882;7.718;2024-01-16T09:04:31;97933.09;;;5.07;44.01
83559;BME280;73527;47.882;7.718;2024-01-16T09:06:56;97937.50;;;5.39;43.77
83559;BME280;73527;47.882;7.718;2024-01-16T09:09:21;97941.31;;;5.52;42.29
83559;BME280;73527;47.882;7.718;2024-01-16T09:11:47;97938.25;;;5.63;41.88
83559;BME280;73527;47.882;7.718;2024-01-16T09:14:12;97933.78;;;5.72;42.22
83559;BME280;73527;47.882;7.718;2024-01-16T09:16:37;97930.19;;;5.96;41.39
83559;BME280;73527;47.882;7.718;2024-01-16T09:19:04;97936.88;;;4.64;44.76
83559;BME280;73527;47.882;7.718;2024-01-16T09:21:29;97934.38;;;4.46;45.10
83559;BME280;73527;47.882;7.718;2024-01-16T09:23:55;97931.41;;;4.98;45.18
83559;BME280;73527;47.882;7.718;2024-01-16T09:26:20;97926.06;;;5.30;45.96
83559;BME280;73527;47.882;7.718;2024-01-16T09:28:46;97915.91;;;6.05;43.57
83559;BME280;73527;47.882;7.718;2024-01-16T09:31:11;97918.97;;;5.77;43.55
83559;BME280;73527;47.882;7.718;2024-01-16T09:33:37;97921.94;;;5.91;42.92
83559;BME280;73527;47.882;7.718;2024-01-16T09:36:02;97922.91;;;5.43;44.88
83559;BME280;73527;47.882;7.718;2024-01-16T09:38:28;97920.59;;;5.32;45.13
83559;BME280;73527;47.882;7.718;2024-01-16T09:40:53;97901.34;;;5.30;45.37
83559;BME280;73527;47.882;7.718;2024-01-16T09:43:23;97907.69;;;4.72;46.33
83559;BME280;73527;47.882;7.718;2024-01-16T09:45:51;97925.09;;;5.23;46.39
83559;BME280;73527;47.882;7.718;2024-01-16T09:48:17;97916.38;;;5.61;44.61
83559;BME280;73527;47.882;7.718;2024-01-16T09:50:43;97904.56;;;6.11;43.83
83559;BME280;73527;47.882;7.718;2024-01-16T09:53:08;97904.81;;;5.85;44.62
83559;BME280;73527;47.882;7.718;2024-01-16T09:55:34;97913.75;;;5.37;46.07
83559;BME280;73527;47.882;7.718;2024-01-16T09:57:59;97916.13;;;5.16;45.65
83559;BME280;73527;47.882;7.718;2024-01-16T10:00:26;97911.19;;;5.68;45.93
83559;BME280;73527;47.882;7.718;2024-01-16T10:02:52;97871.03;;;6.02;43.76
83559;BME280;73527;47.882;7.718;2024-01-16T10:05:18;97884.03;;;6.88;42.56
83559;BME280;73527;47.882;7.718;2024-01-16T10:07:44;97885.22;;;6.48;43.03
83559;BME280;73527;47.882;7.718;2024-01-16T10:10:10;97879.69;;;6.72;42.85
83559;BME280;73527;47.882;7.718;2024-01-16T10:12:39;97874.72;;;6.69;43.33
83559;BME280;73527;47.882;7.718;2024-01-16T10:15:06;97871.72;;;6.49;43.14
83559;BME280;73527;47.882;7.718;2024-01-16T10:17:43;97891.28;;;6.34;43.86
83559;BME280;73527;47.882;7.718;2024-01-16T10:20:10;97894.19;;;6.24;44.30
83559;BME280;73527;47.882;7.718;2024-01-16T10:22:39;97897.66;;;6.24;44.73
83559;BME280;73527;47.882;7.718;2024-01-16T10:27:35;97896.78;;;6.01;44.38
83559;BME280;73527;47.882;7.718;2024-01-16T10:30:00;97899.00;;;5.90;46.11
83559;BME280;73527;47.882;7.718;2024-01-16T10:32:40;97895.03;;;5.77;45.55
83559;BME280;73527;47.882;7.718;2024-01-16T10:35:13;97883.19;;;5.49;46.02
83559;BME280;73527;47.882;7.718;2024-01-16T10:37:48;97904.78;;;5.46;45.86
83559;BME280;73527;47.882;7.718;2024-01-16T10:40:18;97893.72;;;5.73;46.18
83559;BME280;73527;47.882;7.718;2024-01-16T10:42:45;97894.69;;;5.89;45.75
83559;BME280;73527;47.882;7.718;2024-01-16T10:45:18;97887.66;;;5.96;45.48
83559;BME280;73527;47.882;7.718;2024-01-16T10:47:47;97887.78;;;6.02;45.43
83559;BME280;73527;47.882;7.718;2024-01-16T10:50:13;97891.97;;;5.50;45.99
83559;BME280;73527;47.882;7.718;2024-01-16T10:52:47;97881.19;;;5.43;46.54
83559;BME280;73527;47.882;7.718;2024-01-16T10:55:21;97895.50;;;5.42;46.48
83559;BME280;73527;47.882;7.718;2024-01-16T10:57:48;97880.75;;;5.23;47.22
83559;BME280;73527;47.882;7.718;2024-01-16T11:00:18;97879.00;;;4.92;48.75
83559;BME280;73527;47.882;7.718;2024-01-16T11:02:49;97878.34;;;4.82;49.16
83559;BME280;73527;47.882;7.718;2024-01-16T11:05:17;97877.34;;;4.58;49.74
83559;BME280;73527;47.882;7.718;2024-01-16T11:07:43;97854.09;;;5.01;49.38
83559;BME280;73527;47.882;7.718;2024-01-16T11:10:12;97876.22;;;5.48;48.01
83559;BME280;73527;47.882;7.718;2024-01-16T11:12:38;97857.03;;;5.22;48.46
83559;BME280;73527;47.882;7.718;2024-01-16T11:15:05;97874.00;;;5.05;48.14
83559;BME280;73527;47.882;7.718;2024-01-16T11:17:33;97865.44;;;4.54;50.07
83559;BME280;73527;47.882;7.718;2024-01-16T11:20:00;97860.09;;;4.62;49.12
83559;BME280;73527;47.882;7.718;2024-01-16T11:22:27;97852.16;;;4.38;50.15
83559;BME280;73527;47.882;7.718;2024-01-16T11:25:09;97872.84;;;4.91;49.91
83559;BME280;73527;47.882;7.718;2024-01-16T11:27:36;97862.06;;;4.93;49.62
83559;BME280;73527;47.882;7.718;2024-01-16T11:30:03;97859.53;;;5.07;48.67
83559;BME280;73527;47.882;7.718;2024-01-16T11:32:36;97853.22;;;5.71;47.01
83559;BME280;73527;47.882;7.718;2024-01-16T11:35:03;97843.75;;;6.08;47.24
83559;BME280;73527;47.882;7.718;2024-01-16T11:37:33;97838.41;;;6.08;46.74
83559;BME280;73527;47.882;7.718;2024-01-16T11:42:45;97832.91;;;5.78;47.04
83559;BME280;73527;47.882;7.718;2024-01-16T11:48:13;97825.81;;;5.32;49.17
83559;BME280;73527;47.882;7.718;2024-01-16T11:50:40;97824.00;;;5.63;47.66
83559;BME280;73527;47.882;7.718;2024-01-16T11:53:05;97823.56;;;5.05;49.61
83559;BME280;73527;47.882;7.718;2024-01-16T11:55:31;97813.84;;;5.67;48.61
83559;BME280;73527;47.882;7.718;2024-01-16T12:00:28;97790.06;;;5.73;48.87
83559;BME280;73527;47.882;7.718;2024-01-16T12:03:02;97782.84;;;6.13;47.51
83559;BME280;73527;47.882;7.718;2024-01-16T12:05:28;97780.66;;;6.76;46.28
83559;BME280;73527;47.882;7.718;2024-01-16T12:07:54;97764.31;;;6.94;45.30
83559;BME280;73527;47.882;7.718;2024-01-16T12:10:21;97767.00;;;7.59;44.60
83559;BME280;73527;47.882;7.718;2024-01-16T12:12:48;97764.91;;;8.12;43.19
83559;BME280;73527;47.882;7.718;2024-01-16T12:15:18;97762.25;;;8.54;41.85
83559;BME280;73527;47.882;7.718;2024-01-16T12:20:18;97739.50;;;9.27;39.46
83559;BME280;73527;47.882;7.718;2024-01-16T12:22:43;97760.94;;;9.33;39.74
83559;BME280;73527;47.882;7.718;2024-01-16T12:25:09;97759.78;;;9.56;39.81
83559;BME280;73527;47.882;7.718;2024-01-16T12:27:36;97736.63;;;9.82;38.21
83559;BME280;73527;47.882;7.718;2024-01-16T12:30:07;97729.28;;;9.98;37.81
83559;BME280;73527;47.882;7.718;2024-01-16T12:32:33;97739.63;;;10.20;38.06
83559;BME280;73527;47.882;7.718;2024-01-16T12:34:59;97731.81;;;10.32;36.97
83559;BME280;73527;47.882;7.718;2024-01-16T12:37:25;97723.59;;;10.40;37.37
83559;BME280;73527;47.882;7.718;2024-01-16T12:39:50;97718.22;;;10.60;36.81
83559;BME280;73527;47.882;7.718;2024-01-16T12:42:17;97713.03;;;10.91;34.25
83559;BME280;73527;47.882;7.718;2024-01-16T12:44:43;97702.22;;;11.17;34.75
83559;BME280;73527;47.882;7.718;2024-01-16T12:47:08;97697.72;;;11.56;34.54
83559;BME280;73527;47.882;7.718;2024-01-16T12:49:40;97691.09;;;11.71;33.95
83559;BME280;73527;47.882;7.718;2024-01-16T12:52:20;97693.94;;;11.76;34.29
83559;BME280;73527;47.882;7.718;2024-01-16T12:54:49;97687.41;;;11.08;34.46
83559;BME280;73527;47.882;7.718;2024-01-16T12:57:23;97680.53;;;11.70;34.52
83559;BME280;73527;47.882;7.718;2024-01-16T12:59:48;97688.22;;;12.04;33.95
83559;BME280;73527;47.882;7.718;2024-01-16T13:02:24;97678.34;;;12.23;33.23
83559;BME280;73527;47.882;7.718;2024-01-16T13:04:59;97668.34;;;12.79;31.83
83559;BME280;73527;47.882;7.718;2024-01-16T13:07:27;97663.59;;;12.57;32.24
83559;BME280;73527;47.882;7.718;2024-01-16T13:10:09;97666.56;;;12.48;33.58
83559;BME280;73527;47.882;7.718;2024-01-16T13:12:34;97664.53;;;12.44;33.36